createdAt,value
2022-10-17T00:00:46.259Z,4.15
2022-10-17T00:03:13.408Z,4.81
2022-10-17T00:05:46.262Z,5.44
2022-10-17T00:08:15.234Z,5.23
2022-10-17T00:10:43.196Z,4.90
2022-10-17T00:13:10.637Z,3.92
2022-10-17T00:15:37.760Z,5.32
2022-10-17T00:18:04.891Z,4.35
2022-10-17T00:20:34.679Z,4.36
2022-10-17T00:23:01.632Z,4.15
2022-10-17T00:25:28.431Z,5.08
2022-10-17T00:27:55.188Z,3.75
2022-10-17T00:30:22.397Z,3.94
2022-10-17T00:32:49.353Z,4.13
2022-10-17T00:35:16.278Z,3.02
2022-10-17T00:37:43.334Z,4.64
2022-10-17T00:40:10.754Z,3.16
2022-10-17T00:42:37.713Z,4.81
2022-10-17T00:45:13.299Z,4.79
2022-10-17T00:47:40.916Z,4.70
2022-10-17T00:50:08.869Z,3.84
2022-10-17T00:52:36.768Z,4.49
2022-10-17T00:55:14.993Z,4.39
2022-10-17T00:57:43.187Z,4.51
2022-10-17T01:00:11.529Z,4.26
2022-10-17T01:02:38.593Z,3.26
2022-10-17T01:05:07.616Z,3.23
2022-10-17T01:07:37.220Z,3.10
2022-10-17T01:10:05.659Z,3.99
2022-10-17T01:13:20.406Z,4.51
2022-10-17T01:15:49.875Z,4.27
2022-10-17T01:18:41.292Z,4.64
2022-10-17T01:21:26.340Z,4.78
2022-10-17T01:24:35.245Z,3.62
2022-10-17T01:27:04.968Z,4.26
2022-10-17T01:29:52.996Z,4.01
2022-10-17T01:32:49.598Z,2.89
2022-10-17T06:18:37.440Z,6.17
2022-10-17T06:21:06.919Z,6.41
2022-10-17T06:23:34.057Z,6.79
2022-10-17T06:26:01.978Z,5.97
2022-10-17T06:28:29.235Z,6.69
2022-10-17T06:30:56.018Z,6.53
2022-10-17T06:33:23.760Z,6.57
2022-10-17T06:35:57.540Z,5.76
2022-10-17T06:38:24.837Z,8.13
2022-10-17T06:40:52.239Z,7.56
2022-10-17T06:43:19.072Z,7.53
2022-10-17T06:45:46.621Z,8.13
2022-10-17T06:48:13.598Z,7.89
2022-10-17T06:50:41.088Z,6.92
2022-10-17T06:53:08.175Z,7.73
2022-10-17T06:55:35.272Z,9.02
2022-10-17T06:58:02.198Z,8.89
2022-10-17T07:00:29.437Z,8.89
2022-10-17T07:02:56.218Z,9.34
2022-10-17T07:05:23.111Z,9.14
2022-10-17T07:07:51.074Z,10.01
2022-10-17T07:10:19.211Z,10.39
2022-10-17T07:12:46.137Z,8.46
2022-10-17T07:15:13.642Z,9.68
2022-10-17T07:17:40.810Z,9.23
2022-10-17T07:20:08.759Z,11.10
2022-10-17T07:22:36.640Z,10.39
2022-10-17T07:25:04.035Z,10.85
2022-10-17T07:27:31.151Z,9.52
2022-10-17T07:29:58.279Z,9.63
2022-10-17T07:32:25.110Z,10.40
2022-10-17T07:34:51.937Z,12.29
2022-10-17T07:37:19.045Z,10.73
2022-10-17T07:39:46.197Z,10.97
2022-10-17T07:42:12.915Z,12.80
2022-10-17T07:44:40.531Z,11.97
2022-10-17T07:47:07.565Z,12.27
2022-10-17T07:49:34.531Z,12.92
2022-10-17T07:52:01.471Z,12.40
2022-10-17T07:54:28.206Z,11.92
2022-10-17T07:56:55.819Z,12.68
2022-10-17T07:59:24.797Z,13.81
2022-10-17T08:01:51.685Z,13.73
2022-10-17T08:04:18.493Z,13.36
2022-10-17T08:06:45.460Z,14.09
2022-10-17T08:09:12.487Z,13.55
2022-10-17T08:11:39.760Z,11.74
2022-10-17T08:14:07.600Z,13.07
2022-10-17T08:16:35.094Z,12.85
2022-10-17T08:19:02.476Z,13.40
2022-10-17T08:21:29.794Z,12.25
2022-10-17T08:23:57.060Z,13.67
2022-10-17T08:26:23.899Z,12.39
2022-10-17T08:28:50.985Z,13.40
2022-10-17T08:31:19.688Z,14.26
2022-10-17T08:33:48.671Z,13.59
2022-10-17T08:36:19.981Z,14.39
2022-10-17T08:38:52.403Z,14.01
2022-10-17T08:41:39.435Z,16.03
2022-10-17T08:44:24.074Z,15.05
2022-10-17T08:46:54.052Z,15.97
2022-10-17T08:49:45.565Z,15.48
2022-10-17T08:52:29.413Z,15.55
2022-10-17T08:54:56.295Z,15.85
2022-10-17T08:57:23.337Z,16.70
2022-10-17T08:59:52.615Z,16.80
2022-10-17T09:02:45.003Z,17.79
2022-10-17T09:05:44.460Z,16.67
2022-10-17T09:08:16.883Z,17.43
2022-10-17T09:10:52.949Z,17.19
2022-10-17T09:13:44.776Z,17.46
2022-10-17T09:16:37.243Z,18.24
2022-10-17T09:19:18.392Z,18.70
2022-10-17T09:22:03.918Z,18.53
2022-10-17T09:24:46.675Z,18.22
2022-10-17T09:27:23.414Z,17.73
2022-10-17T09:30:01.676Z,18.00
2022-10-17T09:32:29.499Z,18.10
2022-10-17T09:34:56.536Z,18.44
2022-10-17T09:37:31.240Z,18.42
2022-10-17T09:39:58.464Z,17.96
2022-10-17T09:42:27.305Z,17.70
2022-10-17T09:45:16.568Z,18.28
2022-10-17T09:47:57.586Z,18.98
2022-10-17T09:50:29.395Z,20.09
2022-10-17T09:53:00.765Z,20.26
2022-10-17T09:55:30.817Z,20.91
2022-10-17T09:58:03.551Z,20.26
2022-10-17T10:00:42.172Z,20.83
2022-10-17T10:03:23.446Z,21.69
2022-10-17T10:06:03.005Z,21.56
2022-10-17T10:08:53.438Z,22.00
2022-10-17T10:11:26.557Z,21.65
2022-10-17T10:13:53.577Z,21.23
2022-10-17T10:16:32.154Z,21.55
2022-10-17T10:18:59.618Z,21.75
2022-10-17T10:21:28.054Z,21.12
2022-10-17T10:24:10.176Z,22.09
2022-10-17T10:26:49.008Z,21.97
2022-10-17T10:29:23.236Z,21.74
2022-10-17T10:31:51.272Z,21.49
2022-10-17T10:34:19.979Z,21.87
2022-10-17T10:37:01.517Z,22.29
2022-10-17T10:39:33.609Z,22.78
2022-10-17T10:42:03.838Z,22.02
2022-10-17T10:44:33.596Z,21.87
2022-10-17T10:47:28.987Z,21.46
2022-10-17T10:50:21.511Z,22.23
2022-10-17T10:52:54.898Z,21.33
2022-10-17T10:55:33.635Z,23.15
2022-10-17T10:58:15.554Z,23.43
2022-10-17T11:00:43.403Z,21.47
2022-10-17T11:03:20.799Z,22.22
2022-10-17T11:05:56.280Z,23.18
2022-10-17T11:08:46.394Z,23.06
2022-10-17T11:11:37.572Z,22.67
2022-10-17T11:14:17.859Z,23.48
2022-10-17T11:16:56.614Z,23.48
2022-10-17T11:19:35.522Z,22.59
2022-10-17T11:22:02.492Z,23.45
2022-10-17T11:24:36.153Z,23.54
2022-10-17T11:27:08.671Z,23.46
2022-10-17T11:29:38.617Z,23.02
2022-10-17T11:32:18.457Z,24.03
2022-10-17T11:34:53.238Z,22.98
2022-10-17T11:37:26.749Z,22.89
2022-10-17T11:40:02.602Z,24.20
2022-10-17T11:43:00.837Z,24.53
2022-10-17T11:45:34.046Z,24.06
2022-10-17T11:48:12.973Z,23.78
2022-10-17T11:53:51.910Z,23.12
2022-10-17T11:56:29.999Z,24.33
2022-10-17T11:59:23.093Z,22.83
2022-10-17T12:01:57.517Z,24.50
2022-10-17T12:05:03.838Z,24.93
2022-10-17T12:07:46.879Z,24.91
2022-10-17T12:10:48.886Z,24.35
2022-10-17T12:13:28.088Z,24.48
2022-10-17T12:16:18.276Z,24.77
2022-10-17T12:18:46.485Z,24.72
2022-10-17T12:21:13.394Z,24.19
2022-10-17T12:23:40.835Z,24.23
2022-10-17T12:26:10.578Z,24.73
2022-10-17T12:28:37.298Z,25.02
2022-10-17T12:31:08.839Z,23.66
2022-10-17T12:33:53.689Z,23.15
2022-10-17T12:36:20.536Z,24.50
2022-10-17T12:38:50.480Z,24.50
2022-10-17T12:41:38.045Z,24.88
2022-10-17T12:44:14.518Z,25.01
2022-10-17T12:46:48.235Z,25.13
2022-10-17T12:49:42.560Z,24.84
2022-10-17T12:52:22.232Z,24.72
2022-10-17T12:55:00.599Z,24.90
2022-10-17T12:57:55.968Z,24.78
2022-10-17T13:00:26.406Z,24.76
2022-10-17T13:02:57.716Z,24.50
2022-10-17T13:05:31.771Z,24.32
2022-10-17T13:08:01.649Z,24.30
2022-10-17T13:10:32.533Z,23.49
2022-10-17T13:13:14.715Z,23.47
2022-10-17T13:15:46.884Z,24.63
2022-10-17T13:18:21.147Z,22.20
2022-10-17T13:21:00.653Z,24.13
2022-10-17T13:23:32.397Z,23.87
2022-10-17T13:26:24.728Z,23.80
2022-10-17T13:29:12.236Z,23.87
2022-10-17T13:31:41.731Z,22.94
2022-10-17T13:34:20.959Z,23.92
2022-10-17T13:36:51.086Z,23.82
2022-10-17T13:39:32.549Z,23.73
2022-10-17T13:42:31.064Z,23.79
2022-10-17T13:44:59.964Z,23.02
2022-10-17T13:47:31.247Z,23.33
2022-10-17T13:49:59.318Z,23.49
2022-10-17T13:52:30.204Z,23.27
2022-10-17T13:55:09.693Z,22.16
2022-10-17T13:57:36.919Z,22.41
2022-10-17T14:00:15.674Z,22.96
2022-10-17T14:02:43.793Z,22.05
2022-10-17T14:05:18.330Z,23.07
2022-10-17T14:08:13.501Z,22.74
2022-10-17T14:10:43.439Z,21.79
2022-10-17T14:16:23.518Z,21.76
2022-10-17T14:18:52.358Z,22.50
2022-10-17T14:21:43.360Z,21.07
2022-10-17T14:24:23.318Z,22.34
2022-10-17T14:26:58.676Z,21.37
2022-10-17T14:29:28.949Z,22.15
2022-10-17T14:32:05.669Z,21.69
2022-10-17T14:34:37.229Z,21.53
2022-10-17T14:37:24.649Z,21.83
2022-10-17T14:39:52.116Z,21.61
2022-10-17T14:42:23.203Z,21.25
2022-10-17T14:44:52.099Z,20.06
2022-10-17T14:47:42.723Z,20.18
2022-10-17T14:50:12.976Z,20.99
2022-10-17T14:52:40.078Z,19.79
2022-10-17T14:55:23.632Z,19.65
2022-10-17T14:57:50.837Z,20.21
2022-10-17T15:00:20.269Z,19.47
2022-10-17T15:02:48.296Z,19.47
2022-10-17T15:05:16.326Z,17.90
2022-10-17T15:07:43.874Z,17.61
2022-10-17T15:10:26.236Z,18.89
2022-10-17T15:12:59.178Z,18.62
2022-10-17T15:15:32.717Z,18.29
2022-10-17T15:18:00.168Z,18.16
2022-10-17T15:20:28.393Z,17.85
2022-10-17T15:22:56.452Z,16.72
2022-10-17T15:25:25.194Z,17.57
2022-10-17T15:27:52.914Z,16.45
2022-10-17T15:30:22.234Z,17.42
2022-10-17T15:32:50.393Z,17.08
2022-10-17T15:35:17.855Z,16.05
2022-10-17T15:37:45.396Z,16.72
2022-10-17T15:40:24.045Z,16.61
2022-10-17T15:42:52.127Z,16.03
2022-10-17T15:45:20.628Z,16.18
2022-10-17T15:48:00.932Z,16.18
2022-10-17T15:50:27.685Z,15.76
2022-10-17T15:52:54.394Z,14.64
2022-10-17T15:55:21.633Z,14.30
2022-10-17T15:57:49.632Z,15.78
2022-10-17T16:00:22.722Z,15.62
2022-10-17T16:02:50.481Z,15.38
2022-10-17T16:05:20.780Z,15.40
2022-10-17T16:07:47.829Z,14.84
2022-10-17T16:10:15.554Z,15.10
2022-10-17T16:12:42.811Z,13.29
2022-10-17T16:15:15.739Z,14.07
2022-10-17T16:17:42.769Z,13.81
2022-10-17T16:20:11.416Z,14.53
2022-10-17T16:22:39.227Z,13.77
2022-10-17T16:25:16.456Z,14.64
2022-10-17T16:27:43.413Z,13.46
2022-10-17T16:30:10.502Z,14.49
2022-10-17T16:32:37.420Z,12.66
2022-10-17T16:35:05.795Z,14.40
2022-10-17T16:37:33.423Z,12.80
2022-10-17T16:40:00.305Z,13.46
2022-10-17T16:42:27.563Z,13.68
2022-10-17T16:44:54.504Z,13.50
2022-10-17T16:47:21.316Z,13.20
2022-10-17T16:49:48.314Z,13.46
2022-10-17T16:52:15.221Z,13.10
2022-10-17T16:54:42.300Z,13.42
2022-10-17T16:57:09.416Z,13.16
2022-10-17T16:59:36.348Z,13.65
2022-10-17T17:02:03.372Z,13.59
2022-10-17T17:04:30.571Z,13.89
2022-10-17T17:06:57.503Z,14.12
2022-10-17T17:09:24.549Z,14.33
2022-10-17T17:11:51.575Z,13.41
2022-10-17T17:14:20.094Z,14.51
2022-10-17T17:16:47.421Z,13.43
2022-10-17T17:19:16.178Z,13.77
2022-10-17T17:21:43.738Z,14.56
2022-10-17T17:24:10.573Z,13.90
2022-10-17T17:26:37.492Z,14.43
2022-10-17T17:29:04.958Z,14.42
2022-10-17T17:31:34.293Z,14.16
2022-10-17T17:34:01.751Z,13.83
2022-10-17T17:36:34.186Z,13.82
2022-10-17T17:39:03.759Z,13.70
2022-10-17T17:41:31.397Z,13.46
2022-10-17T17:43:58.546Z,13.41
2022-10-17T17:46:26.261Z,13.14
2022-10-17T17:48:55.355Z,11.40
2022-10-17T17:51:28.355Z,12.29
2022-10-17T17:53:57.979Z,11.80
2022-10-17T17:56:28.906Z,10.88
2022-10-17T17:59:01.374Z,11.49
2022-10-17T18:01:30.755Z,12.51
2022-10-17T18:03:59.092Z,12.32
2022-10-17T18:06:27.057Z,10.85
2022-10-17T18:08:56.419Z,10.00
2022-10-17T18:11:23.954Z,10.81
2022-10-17T18:13:58.951Z,12.30
2022-10-17T18:16:28.830Z,12.47
2022-10-17T18:18:56.138Z,12.61
2022-10-17T18:21:23.678Z,11.73
2022-10-17T18:23:50.738Z,12.22
2022-10-17T18:26:17.974Z,11.33
2022-10-17T18:28:45.825Z,12.25
2022-10-17T18:31:22.453Z,12.13
2022-10-17T18:33:51.977Z,12.34
2022-10-17T18:36:19.392Z,12.30
2022-10-17T18:38:46.301Z,10.14
2022-10-17T18:41:16.233Z,10.76
2022-10-17T18:43:45.138Z,11.95
2022-10-17T18:46:24.533Z,11.77
2022-10-17T18:48:51.941Z,11.64
2022-10-17T18:51:21.985Z,10.79
2022-10-17T18:53:51.575Z,10.23
2022-10-17T18:56:19.536Z,11.56
2022-10-17T18:58:46.950Z,11.31
2022-10-17T19:01:17.134Z,11.59
2022-10-17T19:03:46.667Z,10.54
2022-10-17T19:06:16.100Z,11.76
2022-10-17T19:08:44.314Z,11.31
2022-10-17T19:11:16.457Z,11.58
2022-10-17T19:16:16.132Z,9.93
2022-10-17T19:18:44.056Z,11.83
2022-10-17T19:21:12.315Z,10.52
2022-10-17T19:23:39.417Z,11.63
2022-10-17T19:26:08.899Z,10.33
2022-10-17T19:28:37.217Z,11.85
2022-10-17T19:31:06.026Z,11.33
2022-10-17T19:33:34.394Z,11.43
2022-10-17T19:36:04.661Z,10.25
2022-10-17T19:38:31.782Z,9.85
2022-10-17T19:43:25.589Z,11.06
2022-10-17T19:46:01.531Z,11.29
2022-10-17T19:48:32.184Z,10.42
2022-10-17T19:50:59.700Z,10.22
2022-10-17T19:53:26.877Z,10.49
2022-10-17T19:55:54.313Z,9.46
2022-10-17T19:58:21.262Z,9.20
2022-10-17T20:00:55.349Z,9.86
2022-10-17T20:03:22.256Z,9.14
2022-10-17T20:05:49.296Z,11.09
2022-10-17T20:08:17.208Z,9.95
2022-10-17T20:10:44.107Z,9.90
2022-10-17T20:13:11.216Z,9.20
2022-10-17T20:15:38.578Z,10.70
2022-10-17T20:18:06.588Z,10.29
2022-10-17T20:20:37.459Z,10.47
2022-10-17T20:23:05.182Z,10.52
2022-10-17T20:25:32.422Z,10.61
2022-10-17T20:27:59.382Z,9.26
2022-10-17T20:30:27.176Z,8.58
2022-10-17T20:32:55.756Z,10.26
2022-10-17T20:35:23.100Z,9.09
2022-10-17T20:37:50.785Z,9.00
2022-10-17T20:40:34.174Z,8.98
2022-10-17T20:43:02.799Z,8.75
2022-10-17T20:45:43.823Z,8.85
2022-10-17T20:48:19.815Z,8.86
2022-10-17T20:50:46.811Z,9.33
2022-10-17T20:56:09.440Z,8.70
2022-10-17T20:58:36.658Z,8.53
2022-10-17T21:01:08.899Z,8.26
2022-10-17T21:03:39.827Z,8.20
2022-10-17T21:06:10.233Z,7.60
2022-10-17T21:08:38.098Z,8.75
2022-10-17T21:11:15.593Z,9.27
2022-10-17T21:13:42.992Z,9.30
2022-10-17T21:16:15.811Z,8.06
2022-10-17T21:18:43.489Z,9.05
2022-10-17T21:21:17.209Z,8.01
2022-10-17T21:23:45.956Z,8.45
2022-10-17T21:26:13.979Z,8.46
2022-10-17T21:28:42.030Z,8.32
2022-10-17T21:31:26.776Z,7.54
2022-10-17T21:33:57.631Z,7.46
2022-10-17T21:36:26.108Z,8.29
2022-10-17T21:38:54.985Z,8.25
2022-10-17T21:41:24.295Z,8.26
2022-10-17T21:43:58.182Z,8.33
2022-10-17T21:46:25.709Z,8.06
2022-10-17T21:48:53.632Z,7.56
2022-10-17T21:51:23.614Z,6.59
2022-10-17T21:53:52.296Z,7.52
2022-10-17T21:56:21.975Z,7.43
2022-10-17T21:58:50.539Z,7.33
2022-10-17T22:01:33.139Z,5.42
2022-10-17T22:04:04.210Z,7.25
2022-10-17T22:06:39.701Z,7.26
2022-10-17T22:09:12.818Z,7.33
2022-10-17T22:11:40.107Z,6.26
2022-10-17T22:14:11.795Z,7.38
2022-10-17T22:16:39.714Z,7.35
2022-10-17T22:19:08.058Z,6.27
2022-10-17T22:21:36.837Z,7.11
2022-10-17T22:24:07.465Z,6.12
2022-10-17T22:26:36.170Z,6.80
2022-10-17T22:29:04.927Z,5.54
2022-10-17T22:31:32.415Z,6.31
2022-10-17T22:33:59.700Z,6.56
2022-10-17T22:36:26.543Z,5.13
2022-10-17T22:38:53.540Z,6.15
2022-10-17T22:41:20.757Z,5.02
2022-10-17T22:43:47.849Z,5.96
2022-10-17T22:46:15.773Z,4.59
2022-10-17T22:48:42.981Z,5.17
2022-10-17T22:51:10.631Z,4.65
2022-10-17T22:53:37.978Z,5.75
2022-10-17T22:56:11.702Z,5.77
2022-10-17T22:58:38.947Z,4.40
2022-10-17T23:01:07.882Z,4.89
2022-10-17T23:03:35.535Z,5.62
2022-10-17T23:06:03.052Z,5.72
2022-10-17T23:08:30.428Z,5.50
2022-10-17T23:10:57.943Z,4.92
2022-10-17T23:13:24.822Z,5.30
2022-10-17T23:15:53.514Z,3.64
2022-10-17T23:18:21.569Z,4.19
2022-10-17T23:20:49.131Z,4.96
2022-10-17T23:23:16.541Z,3.94
2022-10-17T23:25:43.716Z,4.29
2022-10-17T23:28:10.713Z,4.55
2022-10-17T23:30:38.554Z,2.93
2022-10-17T23:33:06.169Z,4.06
2022-10-17T23:35:33.920Z,2.40
2022-10-17T23:38:01.452Z,4.89
2022-10-17T23:40:28.498Z,4.86
2022-10-17T23:42:55.372Z,3.76
2022-10-17T23:45:22.974Z,5.15
2022-10-17T23:47:50.255Z,4.25
2022-10-17T23:50:17.180Z,5.08
2022-10-17T23:52:44.458Z,5.43
2022-10-17T23:55:11.611Z,5.08
2022-10-17T23:57:38.458Z,5.16
